sensor_id;sensor_type;location;lat;lon;timestamp;P1;durP1;ratioP1;P2;durP2;ratioP2
43664;SDS011;29263;48.172;11.484;2023-07-13T00:02:21;2.83;;;2.00;;
43664;SDS011;29263;48.172;11.484;2023-07-13T00:04:47;3.15;;;1.92;;
43664;SDS011;29263;48.172;11.484;2023-07-13T00:07:12;2.75;;;1.88;;
43664;SDS011;29263;48.172;11.484;2023-07-13T00:09:39;3.08;;;1.90;;
43664;SDS011;29263;48.172;11.484;2023-07-13T00:12:05;11.50;;;2.65;;
43664;SDS011;29263;48.172;11.484;2023-07-13T00:14:49;2.80;;;1.92;;
43664;SDS011;29263;48.172;11.484;2023-07-13T00:17:15;3.72;;;1.98;;
43664;SDS011;29263;48.172;11.484;2023-07-13T00:19:40;3.83;;;2.10;;
43664;SDS011;29263;48.172;11.484;2023-07-13T00:22:06;4.00;;;2.40;;
43664;SDS011;29263;48.172;11.484;2023-07-13T00:24:32;3.67;;;2.10;;
43664;SDS011;29263;48.172;11.484;2023-07-13T00:26:57;4.35;;;1.90;;
43664;SDS011;29263;48.172;11.484;2023-07-13T00:29:23;6.60;;;1.98;;
43664;SDS011;29263;48.172;11.484;2023-07-13T00:31:50;2.63;;;2.08;;
43664;SDS011;29263;48.172;11.484;2023-07-13T00:34:16;3.30;;;2.00;;
43664;SDS011;29263;48.172;11.484;2023-07-13T00:36:41;5.60;;;1.98;;
43664;SDS011;29263;48.172;11.484;2023-07-13T00:39:07;6.55;;;1.95;;
43664;SDS011;29263;48.172;11.484;2023-07-13T00:41:33;3.28;;;1.85;;
43664;SDS011;29263;48.172;11.484;2023-07-13T00:44:00;2.80;;;1.70;;
43664;SDS011;29263;48.172;11.484;2023-07-13T00:46:31;1.58;;;1.48;;
43664;SDS011;29263;48.172;11.484;2023-07-13T00:49:02;3.92;;;1.80;;
43664;SDS011;29263;48.172;11.484;2023-07-13T00:51:33;2.42;;;1.80;;
43664;SDS011;29263;48.172;11.484;2023-07-13T00:54:20;3.50;;;1.70;;
43664;SDS011;29263;48.172;11.484;2023-07-13T00:56:50;2.97;;;1.60;;
43664;SDS011;29263;48.172;11.484;2023-07-13T00:59:18;4.03;;;1.67;;
43664;SDS011;29263;48.172;11.484;2023-07-13T01:01:46;2.45;;;1.60;;
43664;SDS011;29263;48.172;11.484;2023-07-13T01:04:13;3.45;;;2.05;;
43664;SDS011;29263;48.172;11.484;2023-07-13T01:06:39;2.70;;;1.58;;
43664;SDS011;29263;48.172;11.484;2023-07-13T01:09:06;6.15;;;1.75;;
43664;SDS011;29263;48.172;11.484;2023-07-13T01:11:33;2.88;;;1.60;;
43664;SDS011;29263;48.172;11.484;2023-07-13T01:14:00;5.07;;;1.40;;
43664;SDS011;29263;48.172;11.484;2023-07-13T01:16:30;2.25;;;1.80;;
43664;SDS011;29263;48.172;11.484;2023-07-13T01:18:58;3.35;;;1.88;;
43664;SDS011;29263;48.172;11.484;2023-07-13T01:21:25;3.72;;;1.65;;
43664;SDS011;29263;48.172;11.484;2023-07-13T01:23:52;1.70;;;1.50;;
43664;SDS011;29263;48.172;11.484;2023-07-13T01:26:17;4.63;;;1.55;;
43664;SDS011;29263;48.172;11.484;2023-07-13T01:28:43;1.85;;;1.20;;
43664;SDS011;29263;48.172;11.484;2023-07-13T01:31:09;4.18;;;1.60;;
43664;SDS011;29263;48.172;11.484;2023-07-13T01:33:36;3.85;;;1.75;;
43664;SDS011;29263;48.172;11.484;2023-07-13T01:36:04;2.25;;;1.60;;
43664;SDS011;29263;48.172;11.484;2023-07-13T01:38:31;5.22;;;1.73;;
43664;SDS011;29263;48.172;11.484;2023-07-13T01:40:56;2.95;;;2.17;;
43664;SDS011;29263;48.172;11.484;2023-07-13T01:43:22;4.68;;;2.03;;
43664;SDS011;29263;48.172;11.484;2023-07-13T01:45:48;2.92;;;1.92;;
43664;SDS011;29263;48.172;11.484;2023-07-13T01:48:13;2.72;;;2.30;;
43664;SDS011;29263;48.172;11.484;2023-07-13T01:50:39;4.95;;;2.30;;
43664;SDS011;29263;48.172;11.484;2023-07-13T01:53:05;3.53;;;2.25;;
43664;SDS011;29263;48.172;11.484;2023-07-13T01:55:31;4.47;;;2.60;;
43664;SDS011;29263;48.172;11.484;2023-07-13T01:57:57;4.65;;;2.28;;
43664;SDS011;29263;48.172;11.484;2023-07-13T02:00:23;5.65;;;2.55;;
43664;SDS011;29263;48.172;11.484;2023-07-13T02:02:49;2.75;;;1.90;;
43664;SDS011;29263;48.172;11.484;2023-07-13T02:05:15;3.60;;;2.20;;
43664;SDS011;29263;48.172;11.484;2023-07-13T02:07:42;5.38;;;2.30;;
43664;SDS011;29263;48.172;11.484;2023-07-13T02:10:08;2.65;;;1.90;;
43664;SDS011;29263;48.172;11.484;2023-07-13T02:12:35;2.90;;;1.83;;
43664;SDS011;29263;48.172;11.484;2023-07-13T02:15:01;2.85;;;1.80;;
43664;SDS011;29263;48.172;11.484;2023-07-13T02:17:26;3.28;;;2.13;;
43664;SDS011;29263;48.172;11.484;2023-07-13T02:19:52;5.43;;;2.10;;
43664;SDS011;29263;48.172;11.484;2023-07-13T02:22:18;3.35;;;2.08;;
43664;SDS011;29263;48.172;11.484;2023-07-13T02:24:44;6.47;;;2.22;;
43664;SDS011;29263;48.172;11.484;2023-07-13T02:27:10;3.58;;;2.30;;
43664;SDS011;29263;48.172;11.484;2023-07-13T02:29:35;4.75;;;2.53;;
43664;SDS011;29263;48.172;11.484;2023-07-13T02:32:01;2.83;;;2.22;;
43664;SDS011;29263;48.172;11.484;2023-07-13T02:34:26;4.03;;;2.28;;
43664;SDS011;29263;48.172;11.484;2023-07-13T02:36:52;4.25;;;2.45;;
43664;SDS011;29263;48.172;11.484;2023-07-13T02:39:17;3.53;;;2.00;;
43664;SDS011;29263;48.172;11.484;2023-07-13T02:41:43;5.50;;;2.40;;
43664;SDS011;29263;48.172;11.484;2023-07-13T02:44:09;3.15;;;2.30;;
43664;SDS011;29263;48.172;11.484;2023-07-13T02:46:35;6.80;;;2.42;;
43664;SDS011;29263;48.172;11.484;2023-07-13T02:49:02;5.28;;;2.67;;
43664;SDS011;29263;48.172;11.484;2023-07-13T02:51:28;4.72;;;2.90;;
43664;SDS011;29263;48.172;11.484;2023-07-13T02:53:54;5.05;;;2.50;;
43664;SDS011;29263;48.172;11.484;2023-07-13T02:56:23;5.53;;;2.85;;
43664;SDS011;29263;48.172;11.484;2023-07-13T02:58:51;5.03;;;2.47;;
43664;SDS011;29263;48.172;11.484;2023-07-13T03:01:17;3.50;;;2.40;;
43664;SDS011;29263;48.172;11.484;2023-07-13T03:03:44;5.55;;;2.83;;
43664;SDS011;29263;48.172;11.484;2023-07-13T03:06:11;3.83;;;2.83;;
43664;SDS011;29263;48.172;11.484;2023-07-13T03:08:38;5.25;;;2.70;;
43664;SDS011;29263;48.172;11.484;2023-07-13T03:11:05;3.67;;;2.85;;
43664;SDS011;29263;48.172;11.484;2023-07-13T03:13:33;4.05;;;2.60;;
43664;SDS011;29263;48.172;11.484;2023-07-13T03:15:59;3.83;;;2.70;;
43664;SDS011;29263;48.172;11.484;2023-07-13T03:18:26;3.58;;;2.20;;
43664;SDS011;29263;48.172;11.484;2023-07-13T03:20:52;5.57;;;2.60;;
43664;SDS011;29263;48.172;11.484;2023-07-13T03:23:19;4.40;;;2.30;;
43664;SDS011;29263;48.172;11.484;2023-07-13T03:25:45;4.47;;;2.40;;
43664;SDS011;29263;48.172;11.484;2023-07-13T03:28:11;7.05;;;2.63;;
43664;SDS011;29263;48.172;11.484;2023-07-13T03:30:37;4.53;;;2.65;;
43664;SDS011;29263;48.172;11.484;2023-07-13T03:33:03;3.42;;;2.22;;
43664;SDS011;29263;48.172;11.484;2023-07-13T03:35:29;3.75;;;2.50;;
43664;SDS011;29263;48.172;11.484;2023-07-13T03:37:54;4.90;;;2.60;;
43664;SDS011;29263;48.172;11.484;2023-07-13T03:40:20;3.78;;;2.63;;
43664;SDS011;29263;48.172;11.484;2023-07-13T03:42:46;6.65;;;2.50;;
43664;SDS011;29263;48.172;11.484;2023-07-13T03:45:11;2.58;;;2.25;;
43664;SDS011;29263;48.172;11.484;2023-07-13T03:47:37;5.35;;;2.45;;
43664;SDS011;29263;48.172;11.484;2023-07-13T03:50:03;8.35;;;2.58;;
43664;SDS011;29263;48.172;11.484;2023-07-13T03:52:29;3.72;;;2.30;;
43664;SDS011;29263;48.172;11.484;2023-07-13T03:54:54;3.08;;;2.08;;
43664;SDS011;29263;48.172;11.484;2023-07-13T03:57:20;3.70;;;2.10;;
43664;SDS011;29263;48.172;11.484;2023-07-13T03:59:46;3.70;;;1.90;;
43664;SDS011;29263;48.172;11.484;2023-07-13T04:02:11;2.90;;;1.92;;
43664;SDS011;29263;48.172;11.484;2023-07-13T04:04:37;5.20;;;2.10;;
43664;SDS011;29263;48.172;11.484;2023-07-13T04:07:05;2.88;;;1.92;;
43664;SDS011;29263;48.172;11.484;2023-07-13T04:09:33;4.47;;;2.38;;
43664;SDS011;29263;48.172;11.484;2023-07-13T04:11:59;5.35;;;1.83;;
43664;SDS011;29263;48.172;11.484;2023-07-13T04:14:24;3.13;;;1.95;;
43664;SDS011;29263;48.172;11.484;2023-07-13T04:16:50;3.53;;;2.10;;
43664;SDS011;29263;48.172;11.484;2023-07-13T04:19:16;6.00;;;2.10;;
43664;SDS011;29263;48.172;11.484;2023-07-13T04:21:42;3.97;;;2.33;;
43664;SDS011;29263;48.172;11.484;2023-07-13T04:24:07;4.63;;;2.00;;
43664;SDS011;29263;48.172;11.484;2023-07-13T04:26:33;4.35;;;2.15;;
43664;SDS011;29263;48.172;11.484;2023-07-13T04:29:00;4.38;;;2.28;;
43664;SDS011;29263;48.172;11.484;2023-07-13T04:31:28;4.03;;;1.80;;
43664;SDS011;29263;48.172;11.484;2023-07-13T04:33:54;2.85;;;1.90;;
43664;SDS011;29263;48.172;11.484;2023-07-13T04:36:20;5.20;;;1.90;;
43664;SDS011;29263;48.172;11.484;2023-07-13T04:38:46;4.18;;;2.17;;
43664;SDS011;29263;48.172;11.484;2023-07-13T04:41:12;3.40;;;2.00;;
43664;SDS011;29263;48.172;11.484;2023-07-13T04:43:39;4.53;;;2.13;;
43664;SDS011;29263;48.172;11.484;2023-07-13T04:46:06;2.60;;;2.13;;
43664;SDS011;29263;48.172;11.484;2023-07-13T04:48:33;4.40;;;2.33;;
43664;SDS011;29263;48.172;11.484;2023-07-13T04:51:39;2.60;;;2.08;;
43664;SDS011;29263;48.172;11.484;2023-07-13T04:54:05;4.63;;;2.38;;
43664;SDS011;29263;48.172;11.484;2023-07-13T04:56:33;6.55;;;1.83;;
43664;SDS011;29263;48.172;11.484;2023-07-13T04:58:58;2.15;;;1.80;;
43664;SDS011;29263;48.172;11.484;2023-07-13T05:01:27;4.63;;;2.25;;
43664;SDS011;29263;48.172;11.484;2023-07-13T05:03:52;2.78;;;2.38;;
43664;SDS011;29263;48.172;11.484;2023-07-13T05:06:20;3.33;;;2.25;;
43664;SDS011;29263;48.172;11.484;2023-07-13T05:08:46;4.22;;;2.22;;
43664;SDS011;29263;48.172;11.484;2023-07-13T05:11:11;10.52;;;2.35;;
43664;SDS011;29263;48.172;11.484;2023-07-13T05:13:37;2.42;;;2.08;;
43664;SDS011;29263;48.172;11.484;2023-07-13T05:16:03;3.45;;;1.75;;
43664;SDS011;29263;48.172;11.484;2023-07-13T05:18:31;3.30;;;2.28;;
43664;SDS011;29263;48.172;11.484;2023-07-13T05:21:01;3.58;;;2.45;;
43664;SDS011;29263;48.172;11.484;2023-07-13T05:23:28;4.05;;;2.38;;
43664;SDS011;29263;48.172;11.484;2023-07-13T05:25:54;2.25;;;1.67;;
43664;SDS011;29263;48.172;11.484;2023-07-13T05:28:21;3.10;;;1.90;;
43664;SDS011;29263;48.172;11.484;2023-07-13T05:30:47;2.72;;;1.63;;
43664;SDS011;29263;48.172;11.484;2023-07-13T05:33:13;2.33;;;1.40;;
43664;SDS011;29263;48.172;11.484;2023-07-13T05:35:39;3.38;;;1.70;;
43664;SDS011;29263;48.172;11.484;2023-07-13T05:38:05;4.35;;;2.00;;
43664;SDS011;29263;48.172;11.484;2023-07-13T05:40:31;3.33;;;1.75;;
43664;SDS011;29263;48.172;11.484;2023-07-13T05:42:57;2.45;;;1.70;;
43664;SDS011;29263;48.172;11.484;2023-07-13T05:45:22;3.08;;;1.67;;
43664;SDS011;29263;48.172;11.484;2023-07-13T05:47:48;4.10;;;1.90;;
43664;SDS011;29263;48.172;11.484;2023-07-13T05:50:14;2.17;;;1.80;;
43664;SDS011;29263;48.172;11.484;2023-07-13T05:52:39;3.22;;;2.05;;
43664;SDS011;29263;48.172;11.484;2023-07-13T05:55:05;3.53;;;2.22;;
43664;SDS011;29263;48.172;11.484;2023-07-13T05:57:30;4.70;;;2.00;;
43664;SDS011;29263;48.172;11.484;2023-07-13T05:59:56;4.30;;;2.03;;
43664;SDS011;29263;48.172;11.484;2023-07-13T06:02:22;3.28;;;2.00;;
43664;SDS011;29263;48.172;11.484;2023-07-13T06:04:48;2.65;;;1.75;;
43664;SDS011;29263;48.172;11.484;2023-07-13T06:07:14;2.95;;;1.92;;
43664;SDS011;29263;48.172;11.484;2023-07-13T06:09:39;2.40;;;1.70;;
43664;SDS011;29263;48.172;11.484;2023-07-13T06:12:05;5.90;;;2.25;;
43664;SDS011;29263;48.172;11.484;2023-07-13T06:14:31;7.97;;;2.25;;
43664;SDS011;29263;48.172;11.484;2023-07-13T06:16:57;4.05;;;2.33;;
43664;SDS011;29263;48.172;11.484;2023-07-13T06:19:23;4.10;;;2.10;;
43664;SDS011;29263;48.172;11.484;2023-07-13T06:21:48;2.53;;;2.08;;
43664;SDS011;29263;48.172;11.484;2023-07-13T06:24:14;2.95;;;2.35;;
43664;SDS011;29263;48.172;11.484;2023-07-13T06:26:40;4.38;;;1.67;;
43664;SDS011;29263;48.172;11.484;2023-07-13T06:29:05;5.13;;;2.05;;
43664;SDS011;29263;48.172;11.484;2023-07-13T06:31:31;4.35;;;1.52;;
43664;SDS011;29263;48.172;11.484;2023-07-13T06:33:57;4.90;;;1.60;;
43664;SDS011;29263;48.172;11.484;2023-07-13T06:36:22;2.90;;;1.38;;
43664;SDS011;29263;48.172;11.484;2023-07-13T06:38:48;2.95;;;1.45;;
43664;SDS011;29263;48.172;11.484;2023-07-13T06:41:13;2.63;;;1.45;;
43664;SDS011;29263;48.172;11.484;2023-07-13T06:43:39;5.35;;;1.50;;
43664;SDS011;29263;48.172;11.484;2023-07-13T06:46:05;3.05;;;1.52;;
43664;SDS011;29263;48.172;11.484;2023-07-13T06:48:30;2.65;;;1.50;;
43664;SDS011;29263;48.172;11.484;2023-07-13T06:50:56;2.03;;;1.50;;
43664;SDS011;29263;48.172;11.484;2023-07-13T06:53:22;5.85;;;1.50;;
43664;SDS011;29263;48.172;11.484;2023-07-13T06:55:48;2.92;;;1.33;;
43664;SDS011;29263;48.172;11.484;2023-07-13T06:58:14;4.82;;;1.25;;
43664;SDS011;29263;48.172;11.484;2023-07-13T07:00:41;2.00;;;1.45;;
43664;SDS011;29263;48.172;11.484;2023-07-13T07:03:06;3.35;;;1.50;;
43664;SDS011;29263;48.172;11.484;2023-07-13T07:05:32;5.93;;;1.40;;
43664;SDS011;29263;48.172;11.484;2023-07-13T07:07:58;2.67;;;1.60;;
43664;SDS011;29263;48.172;11.484;2023-07-13T07:10:23;3.88;;;1.60;;
43664;SDS011;29263;48.172;11.484;2023-07-13T07:12:50;2.45;;;1.42;;
43664;SDS011;29263;48.172;11.484;2023-07-13T07:15:15;3.00;;;1.88;;
43664;SDS011;29263;48.172;11.484;2023-07-13T07:17:42;4.88;;;1.52;;
43664;SDS011;29263;48.172;11.484;2023-07-13T07:20:08;3.78;;;1.35;;
43664;SDS011;29263;48.172;11.484;2023-07-13T07:22:34;2.63;;;1.50;;
43664;SDS011;29263;48.172;11.484;2023-07-13T07:25:00;3.42;;;1.80;;
43664;SDS011;29263;48.172;11.484;2023-07-13T07:27:26;5.07;;;1.75;;
43664;SDS011;29263;48.172;11.484;2023-07-13T07:29:52;3.20;;;1.27;;
43664;SDS011;29263;48.172;11.484;2023-07-13T07:32:18;3.28;;;1.70;;
43664;SDS011;29263;48.172;11.484;2023-07-13T07:34:45;3.50;;;1.70;;
43664;SDS011;29263;48.172;11.484;2023-07-13T07:37:11;2.22;;;1.50;;
43664;SDS011;29263;48.172;11.484;2023-07-13T07:39:38;3.15;;;1.25;;
43664;SDS011;29263;48.172;11.484;2023-07-13T07:42:04;4.20;;;1.50;;
43664;SDS011;29263;48.172;11.484;2023-07-13T07:44:30;5.32;;;1.38;;
43664;SDS011;29263;48.172;11.484;2023-07-13T07:46:56;3.67;;;1.70;;
43664;SDS011;29263;48.172;11.484;2023-07-13T07:49:22;4.80;;;1.83;;
43664;SDS011;29263;48.172;11.484;2023-07-13T07:51:48;3.63;;;1.33;;
43664;SDS011;29263;48.172;11.484;2023-07-13T07:54:14;4.60;;;1.15;;
43664;SDS011;29263;48.172;11.484;2023-07-13T07:56:39;2.58;;;1.13;;
43664;SDS011;29263;48.172;11.484;2023-07-13T07:59:05;1.67;;;1.40;;
43664;SDS011;29263;48.172;11.484;2023-07-13T08:01:31;1.77;;;1.42;;
43664;SDS011;29263;48.172;11.484;2023-07-13T08:03:57;1.75;;;1.23;;
43664;SDS011;29263;48.172;11.484;2023-07-13T08:06:22;3.38;;;1.23;;
43664;SDS011;29263;48.172;11.484;2023-07-13T08:08:48;7.28;;;1.67;;
43664;SDS011;29263;48.172;11.484;2023-07-13T08:11:14;2.05;;;1.33;;
43664;SDS011;29263;48.172;11.484;2023-07-13T08:13:40;2.22;;;1.30;;
43664;SDS011;29263;48.172;11.484;2023-07-13T08:16:06;2.08;;;1.33;;
43664;SDS011;29263;48.172;11.484;2023-07-13T08:18:32;5.50;;;1.85;;
43664;SDS011;29263;48.172;11.484;2023-07-13T08:20:57;3.58;;;1.63;;
43664;SDS011;29263;48.172;11.484;2023-07-13T08:23:23;2.45;;;1.33;;
43664;SDS011;29263;48.172;11.484;2023-07-13T08:25:50;3.33;;;1.40;;
43664;SDS011;29263;48.172;11.484;2023-07-13T08:28:22;1.63;;;1.15;;
43664;SDS011;29263;48.172;11.484;2023-07-13T08:30:48;1.13;;;0.90;;
43664;SDS011;29263;48.172;11.484;2023-07-13T08:33:21;3.10;;;1.00;;
43664;SDS011;29263;48.172;11.484;2023-07-13T08:35:50;4.75;;;1.85;;
43664;SDS011;29263;48.172;11.484;2023-07-13T08:38:16;3.08;;;1.00;;
43664;SDS011;29263;48.172;11.484;2023-07-13T08:40:43;3.67;;;1.23;;
43664;SDS011;29263;48.172;11.484;2023-07-13T08:43:13;2.35;;;0.93;;
43664;SDS011;29263;48.172;11.484;2023-07-13T08:45:52;3.65;;;1.33;;
43664;SDS011;29263;48.172;11.484;2023-07-13T08:48:26;6.38;;;1.10;;
43664;SDS011;29263;48.172;11.484;2023-07-13T08:53:40;3.47;;;1.00;;
43664;SDS011;29263;48.172;11.484;2023-07-13T08:56:21;2.80;;;1.00;;
43664;SDS011;29263;48.172;11.484;2023-07-13T08:58:53;2.58;;;0.88;;
43664;SDS011;29263;48.172;11.484;2023-07-13T09:01:34;4.13;;;1.10;;
43664;SDS011;29263;48.172;11.484;2023-07-13T09:06:57;1.75;;;0.82;;
43664;SDS011;29263;48.172;11.484;2023-07-13T09:14:53;3.10;;;1.02;;
43664;SDS011;29263;48.172;11.484;2023-07-13T09:17:28;1.38;;;1.00;;
43664;SDS011;29263;48.172;11.484;2023-07-13T09:20:04;1.90;;;1.00;;
43664;SDS011;29263;48.172;11.484;2023-07-13T09:22:55;2.83;;;1.00;;
43664;SDS011;29263;48.172;11.484;2023-07-13T09:28:10;4.25;;;0.77;;
43664;SDS011;29263;48.172;11.484;2023-07-13T09:33:24;3.40;;;1.00;;
43664;SDS011;29263;48.172;11.484;2023-07-13T09:35:54;3.80;;;1.00;;
43664;SDS011;29263;48.172;11.484;2023-07-13T09:38:21;3.22;;;0.75;;
43664;SDS011;29263;48.172;11.484;2023-07-13T09:44:01;4.57;;;1.00;;
43664;SDS011;29263;48.172;11.484;2023-07-13T09:46:26;2.78;;;0.75;;
43664;SDS011;29263;48.172;11.484;2023-07-13T09:48:52;3.03;;;0.90;;
43664;SDS011;29263;48.172;11.484;2023-07-13T09:51:17;3.28;;;1.10;;
43664;SDS011;29263;48.172;11.484;2023-07-13T09:53:43;3.63;;;0.90;;
43664;SDS011;29263;48.172;11.484;2023-07-13T09:56:19;5.20;;;0.95;;
43664;SDS011;29263;48.172;11.484;2023-07-13T09:58:49;1.10;;;0.73;;
43664;SDS011;29263;48.172;11.484;2023-07-13T10:01:15;1.88;;;0.90;;
43664;SDS011;29263;48.172;11.484;2023-07-13T10:03:51;3.05;;;0.93;;
43664;SDS011;29263;48.172;11.484;2023-07-13T10:06:20;2.38;;;1.00;;
43664;SDS011;29263;48.172;11.484;2023-07-13T10:08:47;1.92;;;1.00;;
43664;SDS011;29263;48.172;11.484;2023-07-13T10:11:18;2.75;;;1.17;;
43664;SDS011;29263;48.172;11.484;2023-07-13T10:14:17;1.35;;;0.80;;
43664;SDS011;29263;48.172;11.484;2023-07-13T10:16:48;2.25;;;1.00;;
43664;SDS011;29263;48.172;11.484;2023-07-13T10:19:26;2.40;;;0.90;;
43664;SDS011;29263;48.172;11.484;2023-07-13T10:22:01;3.05;;;1.08;;
43664;SDS011;29263;48.172;11.484;2023-07-13T10:24:36;2.60;;;1.10;;
43664;SDS011;29263;48.172;11.484;2023-07-13T10:29:43;3.53;;;1.58;;
43664;SDS011;29263;48.172;11.484;2023-07-13T10:32:11;3.17;;;0.98;;
43664;SDS011;29263;48.172;11.484;2023-07-13T10:34:38;3.28;;;0.90;;
43664;SDS011;29263;48.172;11.484;2023-07-13T10:37:05;3.45;;;0.90;;
43664;SDS011;29263;48.172;11.484;2023-07-13T10:39:39;4.32;;;0.80;;
43664;SDS011;29263;48.172;11.484;2023-07-13T10:42:06;2.25;;;0.70;;
43664;SDS011;29263;48.172;11.484;2023-07-13T10:44:37;3.40;;;0.90;;
43664;SDS011;29263;48.172;11.484;2023-07-13T10:47:07;2.10;;;1.02;;
43664;SDS011;29263;48.172;11.484;2023-07-13T10:49:38;2.05;;;0.85;;
43664;SDS011;29263;48.172;11.484;2023-07-13T10:52:05;2.83;;;1.02;;
43664;SDS011;29263;48.172;11.484;2023-07-13T10:54:34;2.72;;;1.23;;
43664;SDS011;29263;48.172;11.484;2023-07-13T10:59:43;1.95;;;0.80;;
43664;SDS011;29263;48.172;11.484;2023-07-13T11:02:27;3.60;;;0.93;;
43664;SDS011;29263;48.172;11.484;2023-07-13T11:04:54;2.72;;;1.00;;
43664;SDS011;29263;48.172;11.484;2023-07-13T11:07:23;4.50;;;1.00;;
43664;SDS011;29263;48.172;11.484;2023-07-13T11:10:03;2.40;;;0.82;;
43664;SDS011;29263;48.172;11.484;2023-07-13T11:12:49;1.45;;;0.65;;
43664;SDS011;29263;48.172;11.484;2023-07-13T11:15:27;2.92;;;0.80;;
43664;SDS011;29263;48.172;11.484;2023-07-13T11:17:56;5.13;;;1.05;;
43664;SDS011;29263;48.172;11.484;2023-07-13T11:20:33;3.83;;;1.20;;
43664;SDS011;29263;48.172;11.484;2023-07-13T11:25:38;2.47;;;0.70;;
43664;SDS011;29263;48.172;11.484;2023-07-13T11:28:06;1.40;;;0.85;;
43664;SDS011;29263;48.172;11.484;2023-07-13T11:30:36;4.03;;;0.73;;
43664;SDS011;29263;48.172;11.484;2023-07-13T11:35:41;1.35;;;0.80;;
43664;SDS011;29263;48.172;11.484;2023-07-13T11:38:27;2.20;;;0.77;;
43664;SDS011;29263;48.172;11.484;2023-07-13T11:41:06;0.80;;;0.70;;
43664;SDS011;29263;48.172;11.484;2023-07-13T11:43:39;3.83;;;0.80;;
43664;SDS011;29263;48.172;11.484;2023-07-13T11:48:46;1.88;;;0.80;;
43664;SDS011;29263;48.172;11.484;2023-07-13T11:51:21;3.60;;;1.10;;
43664;SDS011;29263;48.172;11.484;2023-07-13T11:53:51;2.00;;;1.08;;
43664;SDS011;29263;48.172;11.484;2023-07-13T11:56:18;2.13;;;1.00;;
43664;SDS011;29263;48.172;11.484;2023-07-13T11:58:47;1.55;;;1.10;;
43664;SDS011;29263;48.172;11.484;2023-07-13T12:01:20;2.78;;;0.90;;
43664;SDS011;29263;48.172;11.484;2023-07-13T12:03:47;5.13;;;0.80;;
43664;SDS011;29263;48.172;11.484;2023-07-13T12:09:19;3.28;;;0.80;;
43664;SDS011;29263;48.172;11.484;2023-07-13T12:11:50;3.13;;;0.80;;
43664;SDS011;29263;48.172;11.484;2023-07-13T12:14:16;2.33;;;0.98;;
43664;SDS011;29263;48.172;11.484;2023-07-13T12:16:44;1.17;;;0.63;;
43664;SDS011;29263;48.172;11.484;2023-07-13T12:19:29;2.80;;;0.85;;
43664;SDS011;29263;48.172;11.484;2023-07-13T12:21:58;1.05;;;0.80;;
43664;SDS011;29263;48.172;11.484;2023-07-13T12:27:01;2.95;;;0.93;;
43664;SDS011;29263;48.172;11.484;2023-07-13T12:29:32;6.78;;;1.42;;
43664;SDS011;29263;48.172;11.484;2023-07-13T12:31:58;2.78;;;0.82;;
43664;SDS011;29263;48.172;11.484;2023-07-13T12:34:25;4.10;;;1.05;;
43664;SDS011;29263;48.172;11.484;2023-07-13T12:39:20;3.63;;;0.73;;
43664;SDS011;29263;48.172;11.484;2023-07-13T12:41:48;2.90;;;0.90;;
43664;SDS011;29263;48.172;11.484;2023-07-13T12:44:25;2.05;;;0.75;;
43664;SDS011;29263;48.172;11.484;2023-07-13T12:46:58;1.70;;;0.70;;
43664;SDS011;29263;48.172;11.484;2023-07-13T12:49:30;3.50;;;0.80;;
43664;SDS011;29263;48.172;11.484;2023-07-13T12:52:00;3.05;;;0.93;;
43664;SDS011;29263;48.172;11.484;2023-07-13T12:54:27;2.05;;;1.10;;
43664;SDS011;29263;48.172;11.484;2023-07-13T12:56:54;5.45;;;1.00;;
43664;SDS011;29263;48.172;11.484;2023-07-13T12:59:23;3.13;;;1.13;;
43664;SDS011;29263;48.172;11.484;2023-07-13T13:01:51;3.03;;;1.27;;
43664;SDS011;29263;48.172;11.484;2023-07-13T13:04:18;0.75;;;0.50;;
43664;SDS011;29263;48.172;11.484;2023-07-13T13:06:46;2.17;;;0.60;;
43664;SDS011;29263;48.172;11.484;2023-07-13T13:09:14;3.00;;;0.68;;
43664;SDS011;29263;48.172;11.484;2023-07-13T13:11:43;2.60;;;0.80;;
43664;SDS011;29263;48.172;11.484;2023-07-13T13:14:09;1.73;;;0.75;;
43664;SDS011;29263;48.172;11.484;2023-07-13T13:16:35;2.92;;;0.90;;
43664;SDS011;29263;48.172;11.484;2023-07-13T13:19:12;1.48;;;0.70;;
43664;SDS011;29263;48.172;11.484;2023-07-13T13:21:42;2.05;;;0.90;;
43664;SDS011;29263;48.172;11.484;2023-07-13T13:24:15;1.42;;;0.63;;
43664;SDS011;29263;48.172;11.484;2023-07-13T13:26:43;2.42;;;0.95;;
43664;SDS011;29263;48.172;11.484;2023-07-13T13:29:11;1.63;;;1.13;;
43664;SDS011;29263;48.172;11.484;2023-07-13T13:31:44;1.92;;;0.73;;
43664;SDS011;29263;48.172;11.484;2023-07-13T13:34:11;4.18;;;1.08;;
43664;SDS011;29263;48.172;11.484;2023-07-13T13:36:39;3.22;;;0.93;;
43664;SDS011;29263;48.172;11.484;2023-07-13T13:41:52;1.60;;;0.90;;
43664;SDS011;29263;48.172;11.484;2023-07-13T13:44:19;1.02;;;0.70;;
43664;SDS011;29263;48.172;11.484;2023-07-13T13:46:47;6.10;;;1.00;;
43664;SDS011;29263;48.172;11.484;2023-07-13T13:49:25;2.13;;;1.00;;
43664;SDS011;29263;48.172;11.484;2023-07-13T13:51:52;1.40;;;0.80;;
43664;SDS011;29263;48.172;11.484;2023-07-13T13:54:19;1.77;;;0.80;;
43664;SDS011;29263;48.172;11.484;2023-07-13T13:56:47;2.00;;;0.73;;
43664;SDS011;29263;48.172;11.484;2023-07-13T13:59:14;2.25;;;0.80;;
43664;SDS011;29263;48.172;11.484;2023-07-13T14:01:41;3.95;;;0.93;;
43664;SDS011;29263;48.172;11.484;2023-07-13T14:04:10;2.88;;;0.80;;
43664;SDS011;29263;48.172;11.484;2023-07-13T14:06:41;2.25;;;0.65;;
43664;SDS011;29263;48.172;11.484;2023-07-13T14:09:09;3.55;;;0.80;;
43664;SDS011;29263;48.172;11.484;2023-07-13T14:11:41;4.68;;;0.95;;
43664;SDS011;29263;48.172;11.484;2023-07-13T14:14:09;2.70;;;1.00;;
43664;SDS011;29263;48.172;11.484;2023-07-13T14:16:40;2.47;;;0.90;;
43664;SDS011;29263;48.172;11.484;2023-07-13T14:19:08;1.45;;;0.80;;
43664;SDS011;29263;48.172;11.484;2023-07-13T14:21:37;3.13;;;0.90;;
43664;SDS011;29263;48.172;11.484;2023-07-13T14:24:02;1.25;;;0.93;;
43664;SDS011;29263;48.172;11.484;2023-07-13T14:26:29;4.28;;;0.95;;
43664;SDS011;29263;48.172;11.484;2023-07-13T14:29:00;3.35;;;1.00;;
43664;SDS011;29263;48.172;11.484;2023-07-13T14:31:26;1.13;;;0.80;;
43664;SDS011;29263;48.172;11.484;2023-07-13T14:33:55;2.30;;;0.77;;
43664;SDS011;29263;48.172;11.484;2023-07-13T14:36:28;1.52;;;0.80;;
43664;SDS011;29263;48.172;11.484;2023-07-13T14:38:54;1.65;;;0.60;;
43664;SDS011;29263;48.172;11.484;2023-07-13T14:41:25;1.58;;;0.80;;
43664;SDS011;29263;48.172;11.484;2023-07-13T14:43:52;1.17;;;0.70;;
43664;SDS011;29263;48.172;11.484;2023-07-13T14:46:26;1.83;;;0.70;;
43664;SDS011;29263;48.172;11.484;2023-07-13T14:49:01;1.52;;;0.70;;
43664;SDS011;29263;48.172;11.484;2023-07-13T14:51:35;2.13;;;0.75;;
43664;SDS011;29263;48.172;11.484;2023-07-13T14:54:04;4.00;;;1.00;;
43664;SDS011;29263;48.172;11.484;2023-07-13T14:56:33;2.30;;;1.00;;
43664;SDS011;29263;48.172;11.484;2023-07-13T14:58:59;2.72;;;1.33;;
43664;SDS011;29263;48.172;11.484;2023-07-13T15:01:25;1.02;;;0.70;;
43664;SDS011;29263;48.172;11.484;2023-07-13T15:03:51;2.15;;;0.82;;
43664;SDS011;29263;48.172;11.484;2023-07-13T15:06:17;1.27;;;0.70;;
43664;SDS011;29263;48.172;11.484;2023-07-13T15:08:44;1.58;;;0.70;;
43664;SDS011;29263;48.172;11.484;2023-07-13T15:11:11;1.73;;;0.95;;
43664;SDS011;29263;48.172;11.484;2023-07-13T15:13:37;2.15;;;0.82;;
43664;SDS011;29263;48.172;11.484;2023-07-13T15:16:04;4.93;;;1.05;;
43664;SDS011;29263;48.172;11.484;2023-07-13T15:18:34;2.03;;;1.00;;
43664;SDS011;29263;48.172;11.484;2023-07-13T15:21:03;3.07;;;0.90;;
43664;SDS011;29263;48.172;11.484;2023-07-13T15:23:29;5.03;;;1.05;;